BAW990G EGLL-EDDB
Flight info
| Callsign | BAW990G |
|---|---|
| Flight time | 1h 24m |
| Altitude | 37000 |
| Route | BPK7G BPK Q295 BRAIN M197 REDFA DCT TACHA DCT NIE DCT BATEL T207 OGBER OGBER1L |
| Aircraft | A320/M-SDE3FGHIJ1RWXY/SB1 |
Departure
| Time | 2026-05-04 10:29 |
|---|---|
| Airport | London Heathrow Airport (EGLL) |
Arrival
| Time | 2026-05-04 11:53 |
|---|---|
| Airport | Berlin Brandenburg Airport (EDDB) |
| Time | Latitude | Longitude | Altitude | Speed | Heading |
|---|---|---|---|---|---|
| 2026-05-04 10:02 | 51.46931 | -0.48573 | 88 ft | 0 kts | 360° |
| 2026-05-04 10:17 | 51.46914 | -0.48573 | 89 ft | 4 kts | 360° |
| 2026-05-04 10:17 | 51.46892 | -0.48572 | 86 ft | 4 kts | 9° |
| 2026-05-04 10:19 | 51.46877 | -0.48636 | 88 ft | 0 kts | 90° |
| 2026-05-04 10:20 | 51.46877 | -0.48632 | 88 ft | 1 kts | 90° |
| 2026-05-04 10:20 | 51.46877 | -0.48602 | 89 ft | 4 kts | 89° |
| 2026-05-04 10:21 | 51.46877 | -0.48567 | 86 ft | 3 kts | 89° |
| 2026-05-04 10:21 | 51.46877 | -0.48514 | 86 ft | 7 kts | 92° |
| 2026-05-04 10:21 | 51.46819 | -0.48468 | 86 ft | 15 kts | 180° |
| 2026-05-04 10:21 | 51.46705 | -0.48467 | 86 ft | 11 kts | 180° |
| 2026-05-04 10:22 | 51.46654 | -0.48244 | 86 ft | 15 kts | 90° |
| 2026-05-04 10:22 | 51.46653 | -0.48056 | 86 ft | 18 kts | 89° |
| 2026-05-04 10:22 | 51.46655 | -0.47835 | 86 ft | 21 kts | 90° |
| 2026-05-04 10:23 | 51.46655 | -0.47587 | 86 ft | 24 kts | 89° |
| 2026-05-04 10:23 | 51.46656 | -0.47378 | 86 ft | 18 kts | 90° |
| 2026-05-04 10:25 | 51.46662 | -0.45775 | 86 ft | 19 kts | 91° |
| 2026-05-04 10:25 | 51.46662 | -0.45551 | 86 ft | 22 kts | 89° |
| 2026-05-04 10:25 | 51.46662 | -0.45297 | 86 ft | 24 kts | 90° |
| 2026-05-04 10:25 | 51.46663 | -0.45017 | 86 ft | 26 kts | 89° |
| 2026-05-04 10:26 | 51.46664 | -0.44787 | 87 ft | 20 kts | 89° |
| 2026-05-04 10:26 | 51.46667 | -0.44546 | 86 ft | 23 kts | 89° |
| 2026-05-04 10:26 | 51.46667 | -0.44281 | 86 ft | 25 kts | 89° |
| 2026-05-04 10:26 | 51.46668 | -0.44053 | 86 ft | 18 kts | 90° |
| 2026-05-04 10:27 | 51.46667 | -0.43845 | 86 ft | 16 kts | 90° |
| 2026-05-04 10:27 | 51.46666 | -0.43661 | 86 ft | 16 kts | 99° |
| 2026-05-04 10:27 | 51.46594 | -0.43599 | 86 ft | 13 kts | 178° |
| 2026-05-04 10:27 | 51.46505 | -0.43632 | 88 ft | 15 kts | 227° |
| 2026-05-04 10:28 | 51.46493 | -0.43826 | 86 ft | 30 kts | 269° |
| 2026-05-04 10:28 | 51.46491 | -0.44575 | 88 ft | 100 kts | 270° |
| 2026-05-04 10:28 | 51.46488 | -0.46005 | 86 ft | 153 kts | 270° |
| 2026-05-04 10:28 | 51.46464 | -0.47825 | 468 ft | 165 kts | 270° |
| 2026-05-04 10:29 | 51.46436 | -0.49669 | 1174 ft | 165 kts | 275° |
| 2026-05-04 10:29 | 51.46708 | -0.51531 | 1518 ft | 182 kts | 296° |
| 2026-05-04 10:29 | 51.47309 | -0.53449 | 1864 ft | 204 kts | 299° |
| 2026-05-04 10:29 | 51.48009 | -0.55586 | 2283 ft | 228 kts | 298° |
| 2026-05-04 10:30 | 51.48783 | -0.57969 | 2800 ft | 252 kts | 298° |
| 2026-05-04 10:30 | 51.49604 | -0.60525 | 3580 ft | 263 kts | 297° |
| 2026-05-04 10:30 | 51.50480 | -0.63130 | 4523 ft | 268 kts | 304° |
| 2026-05-04 10:30 | 51.51882 | -0.65087 | 5437 ft | 273 kts | 335° |
| 2026-05-04 10:31 | 51.53751 | -0.65679 | 5884 ft | 277 kts | 6° |
| 2026-05-04 10:31 | 51.55579 | -0.64790 | 6009 ft | 276 kts | 28° |
| 2026-05-04 10:32 | 51.62967 | -0.49788 | 10657 ft | 308 kts | 64° |
| 2026-05-04 10:33 | 51.63967 | -0.46598 | 10895 ft | 331 kts | 64° |
| 2026-05-04 10:33 | 51.65021 | -0.43182 | 11294 ft | 346 kts | 64° |
| 2026-05-04 10:33 | 51.66097 | -0.39672 | 12003 ft | 352 kts | 64° |
| 2026-05-04 10:33 | 51.67188 | -0.36110 | 12718 ft | 356 kts | 64° |
| 2026-05-04 10:34 | 51.68291 | -0.32517 | 13448 ft | 360 kts | 64° |
| 2026-05-04 10:34 | 51.69407 | -0.28877 | 14149 ft | 364 kts | 65° |
| 2026-05-04 10:34 | 51.70532 | -0.25205 | 14787 ft | 367 kts | 65° |
| 2026-05-04 10:34 | 51.71669 | -0.21489 | 15430 ft | 370 kts | 65° |
| 2026-05-04 10:35 | 51.72815 | -0.17742 | 16056 ft | 374 kts | 65° |
| 2026-05-04 10:35 | 51.73969 | -0.13965 | 16695 ft | 377 kts | 65° |
| 2026-05-04 10:35 | 51.74905 | -0.10006 | 17299 ft | 379 kts | 76° |
| 2026-05-04 10:35 | 51.75390 | -0.05829 | 17928 ft | 381 kts | 84° |
| 2026-05-04 10:36 | 51.75729 | -0.01613 | 18542 ft | 384 kts | 84° |
| 2026-05-04 10:36 | 51.76084 | 0.02697 | 19061 ft | 388 kts | 84° |
| 2026-05-04 10:36 | 51.76447 | 0.07042 | 19615 ft | 393 kts | 84° |
| 2026-05-04 10:36 | 51.76810 | 0.11440 | 20197 ft | 397 kts | 84° |
| 2026-05-04 10:37 | 51.77176 | 0.15882 | 20748 ft | 401 kts | 84° |
| 2026-05-04 10:37 | 51.77546 | 0.20370 | 21298 ft | 404 kts | 84° |
| 2026-05-04 10:37 | 51.77917 | 0.24893 | 21838 ft | 408 kts | 84° |
| 2026-05-04 10:37 | 51.78287 | 0.29467 | 22376 ft | 412 kts | 84° |
| 2026-05-04 10:39 | 51.80525 | 0.57702 | 25041 ft | 433 kts | 85° |
| 2026-05-04 10:39 | 51.80901 | 0.62540 | 25419 ft | 437 kts | 85° |
| 2026-05-04 10:39 | 51.81449 | 0.67420 | 25693 ft | 445 kts | 77° |
| 2026-05-04 10:40 | 51.82200 | 0.72248 | 26035 ft | 449 kts | 78° |
| 2026-05-04 10:40 | 51.82961 | 0.77163 | 26421 ft | 451 kts | 78° |
| 2026-05-04 10:40 | 51.83725 | 0.82106 | 26798 ft | 454 kts | 78° |
| 2026-05-04 10:40 | 51.84548 | 0.87067 | 27175 ft | 458 kts | 77° |
| 2026-05-04 10:41 | 51.85439 | 0.92022 | 27553 ft | 461 kts | 76° |
| 2026-05-04 10:41 | 51.86378 | 0.97009 | 27936 ft | 464 kts | 76° |
| 2026-05-04 10:41 | 51.87322 | 1.01964 | 28247 ft | 468 kts | 76° |
| 2026-05-04 10:41 | 51.88275 | 1.07022 | 28566 ft | 471 kts | 77° |
| 2026-05-04 10:42 | 51.89216 | 1.12130 | 28907 ft | 474 kts | 77° |
| 2026-05-04 10:42 | 51.90149 | 1.17292 | 29258 ft | 477 kts | 78° |
| 2026-05-04 10:42 | 51.91075 | 1.22480 | 29600 ft | 480 kts | 78° |
| 2026-05-04 10:42 | 51.91986 | 1.27623 | 29934 ft | 483 kts | 78° |
| 2026-05-04 10:43 | 51.92914 | 1.32869 | 30239 ft | 485 kts | 78° |
| 2026-05-04 10:44 | 51.99355 | 1.69406 | 33347 ft | 475 kts | 77° |
| 2026-05-04 10:45 | 52.00213 | 1.74568 | 33841 ft | 472 kts | 77° |
| 2026-05-04 10:45 | 52.01023 | 1.79727 | 34284 ft | 470 kts | 78° |
| 2026-05-04 10:45 | 52.01803 | 1.84865 | 34680 ft | 468 kts | 78° |
| 2026-05-04 10:45 | 52.02575 | 1.90013 | 35055 ft | 467 kts | 78° |
| 2026-05-04 10:46 | 52.03340 | 1.95132 | 35424 ft | 466 kts | 77° |
| 2026-05-04 10:46 | 52.04106 | 2.00228 | 35762 ft | 465 kts | 78° |
| 2026-05-04 10:46 | 52.04884 | 2.05343 | 36071 ft | 465 kts | 77° |
| 2026-05-04 10:46 | 52.05667 | 2.10446 | 36376 ft | 465 kts | 77° |
| 2026-05-04 10:47 | 52.06454 | 2.15552 | 36698 ft | 464 kts | 77° |
| 2026-05-04 10:47 | 52.07222 | 2.20570 | 36963 ft | 464 kts | 77° |
| 2026-05-04 10:47 | 52.07999 | 2.25668 | 37025 ft | 465 kts | 77° |
| 2026-05-04 10:49 | 52.14741 | 2.66518 | 37019 ft | 472 kts | 73° |
| 2026-05-04 10:50 | 52.16790 | 2.76703 | 37021 ft | 472 kts | 73° |
| 2026-05-04 10:52 | 52.24433 | 3.17726 | 37013 ft | 475 kts | 75° |
| 2026-05-04 10:52 | 52.25965 | 3.28104 | 37025 ft | 472 kts | 84° |
| 2026-05-04 10:54 | 52.29570 | 3.70661 | 37006 ft | 475 kts | 84° |
| 2026-05-04 10:56 | 52.33032 | 4.13607 | 37001 ft | 478 kts | 84° |
| 2026-05-04 10:57 | 52.33884 | 4.24432 | 37003 ft | 479 kts | 85° |
| 2026-05-04 10:57 | 52.34728 | 4.35258 | 37011 ft | 480 kts | 85° |
| 2026-05-04 10:58 | 52.35551 | 4.46035 | 37007 ft | 480 kts | 85° |
| 2026-05-04 10:58 | 52.36376 | 4.56881 | 37004 ft | 480 kts | 85° |
| 2026-05-04 10:59 | 52.37195 | 4.67753 | 37007 ft | 480 kts | 85° |
| 2026-05-04 10:59 | 52.37993 | 4.78553 | 37019 ft | 480 kts | 85° |
| 2026-05-04 11:00 | 52.38776 | 4.89412 | 37016 ft | 480 kts | 85° |
| 2026-05-04 11:02 | 52.41847 | 5.32913 | 37023 ft | 481 kts | 85° |
| 2026-05-04 11:05 | 52.47168 | 6.14680 | 36997 ft | 486 kts | 87° |
| 2026-05-04 11:06 | 52.47843 | 6.25724 | 37000 ft | 486 kts | 87° |
| 2026-05-04 11:06 | 52.48508 | 6.36699 | 37007 ft | 487 kts | 87° |
| 2026-05-04 11:10 | 52.52780 | 7.12525 | 37002 ft | 490 kts | 88° |
| 2026-05-04 11:12 | 52.55089 | 7.57293 | 37019 ft | 492 kts | 87° |
| 2026-05-04 11:12 | 52.55632 | 7.68514 | 37015 ft | 492 kts | 87° |
| 2026-05-04 11:13 | 52.56166 | 7.79689 | 37010 ft | 492 kts | 88° |
| 2026-05-04 11:13 | 52.56689 | 7.90918 | 37024 ft | 492 kts | 88° |
| 2026-05-04 11:14 | 52.57207 | 8.02105 | 37001 ft | 492 kts | 88° |
| 2026-05-04 11:16 | 52.59168 | 8.47005 | 37015 ft | 491 kts | 88° |
| 2026-05-04 11:16 | 52.59631 | 8.58229 | 37002 ft | 492 kts | 88° |
| 2026-05-04 11:17 | 52.60083 | 8.69399 | 37003 ft | 491 kts | 89° |
| 2026-05-04 11:19 | 52.61781 | 9.14219 | 37005 ft | 491 kts | 89° |
| 2026-05-04 11:19 | 52.62177 | 9.25422 | 37005 ft | 491 kts | 89° |
| 2026-05-04 11:20 | 52.62536 | 9.36656 | 37005 ft | 490 kts | 92° |
| 2026-05-04 11:20 | 52.62185 | 9.47823 | 37019 ft | 488 kts | 97° |
| 2026-05-04 11:22 | 52.60347 | 9.92328 | 37022 ft | 488 kts | 96° |
| 2026-05-04 11:23 | 52.59861 | 10.03468 | 37016 ft | 487 kts | 97° |
| 2026-05-04 11:25 | 52.58092 | 10.42301 | 37006 ft | 487 kts | 97° |
| 2026-05-04 11:25 | 52.57563 | 10.53422 | 37002 ft | 487 kts | 97° |
| 2026-05-04 11:26 | 52.57021 | 10.64576 | 35717 ft | 492 kts | 98° |
| 2026-05-04 11:27 | 52.55010 | 11.04229 | 30193 ft | 488 kts | 98° |
| 2026-05-04 11:28 | 52.54761 | 11.09701 | 29558 ft | 485 kts | 94° |
| 2026-05-04 11:28 | 52.54835 | 11.15212 | 28994 ft | 480 kts | 90° |
| 2026-05-04 11:28 | 52.54964 | 11.20675 | 28418 ft | 474 kts | 90° |
| 2026-05-04 11:28 | 52.55089 | 11.26057 | 27845 ft | 469 kts | 90° |
| 2026-05-04 11:29 | 52.55209 | 11.31400 | 27280 ft | 464 kts | 90° |
| 2026-05-04 11:29 | 52.55324 | 11.36672 | 26723 ft | 460 kts | 90° |
| 2026-05-04 11:29 | 52.55437 | 11.41906 | 26177 ft | 456 kts | 90° |
| 2026-05-04 11:29 | 52.55548 | 11.47092 | 25642 ft | 452 kts | 90° |
| 2026-05-04 11:31 | 52.56233 | 11.82276 | 22195 ft | 429 kts | 90° |
| 2026-05-04 11:33 | 52.56713 | 12.15834 | 18669 ft | 412 kts | 92° |
| 2026-05-04 11:33 | 52.56706 | 12.20532 | 18129 ft | 410 kts | 92° |
| 2026-05-04 11:33 | 52.56865 | 12.25213 | 17565 ft | 409 kts | 83° |
| 2026-05-04 11:34 | 52.57296 | 12.29821 | 17036 ft | 405 kts | 82° |
| 2026-05-04 11:34 | 52.57734 | 12.34375 | 16503 ft | 401 kts | 82° |
| 2026-05-04 11:34 | 52.58170 | 12.38878 | 15984 ft | 397 kts | 82° |
| 2026-05-04 11:34 | 52.58606 | 12.43348 | 15461 ft | 393 kts | 82° |
| 2026-05-04 11:35 | 52.59039 | 12.47772 | 14944 ft | 390 kts | 82° |
| 2026-05-04 11:35 | 52.59466 | 12.52163 | 14417 ft | 388 kts | 82° |
| 2026-05-04 11:35 | 52.59882 | 12.56485 | 13896 ft | 385 kts | 82° |
| 2026-05-04 11:35 | 52.60297 | 12.60825 | 13344 ft | 383 kts | 82° |
| 2026-05-04 11:36 | 52.60703 | 12.65139 | 12812 ft | 380 kts | 82° |
| 2026-05-04 11:36 | 52.61104 | 12.69414 | 12314 ft | 376 kts | 82° |
| 2026-05-04 11:36 | 52.61501 | 12.73645 | 11820 ft | 372 kts | 82° |
| 2026-05-04 11:36 | 52.61923 | 12.77776 | 11704 ft | 359 kts | 81° |
| 2026-05-04 11:37 | 52.62361 | 12.81789 | 11622 ft | 355 kts | 80° |
| 2026-05-04 11:37 | 52.62808 | 12.85780 | 11533 ft | 354 kts | 80° |
| 2026-05-04 11:37 | 52.63257 | 12.89770 | 11409 ft | 353 kts | 80° |
| 2026-05-04 11:37 | 52.63698 | 12.93740 | 11290 ft | 353 kts | 81° |
| 2026-05-04 11:38 | 52.64134 | 12.97716 | 11160 ft | 352 kts | 81° |
| 2026-05-04 11:38 | 52.64565 | 13.01679 | 10976 ft | 351 kts | 81° |
| 2026-05-04 11:38 | 52.64988 | 13.05609 | 10623 ft | 347 kts | 81° |
| 2026-05-04 11:38 | 52.65405 | 13.09550 | 10456 ft | 347 kts | 81° |
| 2026-05-04 11:39 | 52.65812 | 13.13415 | 10307 ft | 336 kts | 81° |
| 2026-05-04 11:39 | 52.66199 | 13.17097 | 10185 ft | 324 kts | 81° |
| 2026-05-04 11:40 | 52.68408 | 13.38222 | 9292 ft | 308 kts | 81° |
| 2026-05-04 11:41 | 52.68770 | 13.41693 | 9169 ft | 307 kts | 81° |
| 2026-05-04 11:41 | 52.69129 | 13.45154 | 9030 ft | 306 kts | 81° |
| 2026-05-04 11:41 | 52.69485 | 13.48606 | 8886 ft | 305 kts | 81° |
| 2026-05-04 11:41 | 52.69837 | 13.52030 | 8752 ft | 298 kts | 81° |
| 2026-05-04 11:42 | 52.70179 | 13.55357 | 8617 ft | 290 kts | 81° |
| 2026-05-04 11:42 | 52.70503 | 13.58540 | 8493 ft | 281 kts | 81° |
| 2026-05-04 11:42 | 52.70819 | 13.61672 | 8388 ft | 272 kts | 82° |
| 2026-05-04 11:42 | 52.71127 | 13.64726 | 8281 ft | 268 kts | 82° |
| 2026-05-04 11:43 | 52.71385 | 13.67766 | 8151 ft | 267 kts | 91° |
| 2026-05-04 11:43 | 52.71079 | 13.70741 | 7978 ft | 262 kts | 115° |
| 2026-05-04 11:43 | 52.70130 | 13.73232 | 7724 ft | 253 kts | 139° |
| 2026-05-04 11:43 | 52.68739 | 13.74916 | 7474 ft | 246 kts | 158° |
| 2026-05-04 11:44 | 52.67202 | 13.76142 | 7232 ft | 245 kts | 158° |
| 2026-05-04 11:44 | 52.65667 | 13.77363 | 6984 ft | 245 kts | 158° |
| 2026-05-04 11:44 | 52.64150 | 13.78568 | 6740 ft | 244 kts | 158° |
| 2026-05-04 11:44 | 52.62620 | 13.79785 | 6493 ft | 244 kts | 158° |
| 2026-05-04 11:45 | 52.61094 | 13.80996 | 6265 ft | 243 kts | 158° |
| 2026-05-04 11:45 | 52.59578 | 13.82201 | 5997 ft | 242 kts | 158° |
| 2026-05-04 11:45 | 52.58062 | 13.83404 | 5742 ft | 241 kts | 158° |
| 2026-05-04 11:45 | 52.56550 | 13.84603 | 5488 ft | 241 kts | 158° |
| 2026-05-04 11:46 | 52.55042 | 13.85801 | 5237 ft | 240 kts | 158° |
| 2026-05-04 11:46 | 52.53555 | 13.87050 | 4986 ft | 239 kts | 155° |
| 2026-05-04 11:46 | 52.52116 | 13.88385 | 4738 ft | 236 kts | 154° |
| 2026-05-04 11:46 | 52.50701 | 13.89741 | 4479 ft | 234 kts | 153° |
| 2026-05-04 11:47 | 52.49229 | 13.90713 | 4221 ft | 223 kts | 177° |
| 2026-05-04 11:47 | 52.47742 | 13.90461 | 3994 ft | 210 kts | 205° |
| 2026-05-04 11:47 | 52.46559 | 13.89171 | 3923 ft | 204 kts | 230° |
| 2026-05-04 11:47 | 52.45848 | 13.87203 | 3935 ft | 204 kts | 249° |
| 2026-05-04 11:48 | 52.45347 | 13.85039 | 3931 ft | 202 kts | 250° |
| 2026-05-04 11:48 | 52.44850 | 13.82889 | 3895 ft | 199 kts | 250° |
| 2026-05-04 11:48 | 52.44364 | 13.80801 | 3705 ft | 193 kts | 250° |
| 2026-05-04 11:48 | 52.43888 | 13.78761 | 3466 ft | 190 kts | 249° |
| 2026-05-04 11:49 | 52.43421 | 13.76765 | 3256 ft | 184 kts | 249° |
| 2026-05-04 11:49 | 52.42969 | 13.74832 | 2995 ft | 181 kts | 249° |
| 2026-05-04 11:49 | 52.42514 | 13.72889 | 2744 ft | 181 kts | 249° |
| 2026-05-04 11:49 | 52.42073 | 13.71010 | 2512 ft | 178 kts | 249° |
| 2026-05-04 11:50 | 52.41629 | 13.69117 | 2275 ft | 176 kts | 249° |
| 2026-05-04 11:50 | 52.41192 | 13.67256 | 2044 ft | 173 kts | 249° |
| 2026-05-04 11:50 | 52.40767 | 13.65448 | 1806 ft | 166 kts | 249° |
| 2026-05-04 11:50 | 52.40370 | 13.63753 | 1572 ft | 153 kts | 249° |
| 2026-05-04 11:51 | 52.40012 | 13.62180 | 1370 ft | 141 kts | 250° |
| 2026-05-04 11:51 | 52.39784 | 13.61194 | 1265 ft | 138 kts | 249° |
| 2026-05-04 11:51 | 52.39424 | 13.59758 | 1054 ft | 134 kts | 249° |
| 2026-05-04 11:51 | 52.38993 | 13.57892 | 865 ft | 132 kts | 250° |
| 2026-05-04 11:52 | 52.38659 | 13.56465 | 714 ft | 135 kts | 248° |
| 2026-05-04 11:52 | 52.38322 | 13.55049 | 519 ft | 133 kts | 249° |
| 2026-05-04 11:52 | 52.38092 | 13.54084 | 385 ft | 134 kts | 251° |
| 2026-05-04 11:52 | 52.37764 | 13.52698 | 213 ft | 132 kts | 250° |
| 2026-05-04 11:53 | 52.37447 | 13.51356 | 155 ft | 111 kts | 248° |
| 2026-05-04 11:53 | 52.37262 | 13.50583 | 155 ft | 27 kts | 249° |
| 2026-05-04 11:53 | 52.37165 | 13.50322 | 155 ft | 27 kts | 229° |
| 2026-05-04 11:53 | 52.37042 | 13.50142 | 155 ft | 20 kts | 216° |
| 2026-05-04 11:55 | 52.36345 | 13.50383 | 155 ft | 15 kts | 159° |
| 2026-05-04 11:55 | 52.36311 | 13.50411 | 155 ft | 5 kts | 141° |
| 2026-05-04 11:56 | 52.36287 | 13.50472 | 155 ft | 8 kts | 114° |
| 2026-05-04 11:56 | 52.36304 | 13.50567 | 155 ft | 10 kts | 69° |
| 2026-05-04 11:56 | 52.36320 | 13.50633 | 155 ft | 0 kts | 69° |
| 2026-05-04 11:56 | 52.36321 | 13.50636 | 155 ft | 0 kts | 69° |